TimeAKDT,TemperatureF,Dew PointF,Humidity,Sea Level PressureIn,VisibilityMPH,Wind Direction,Wind SpeedMPH,Gust SpeedMPH,PrecipitationIn,Events,Conditions,WindDirDegrees,DateUTC
12:18 AM,48.2,46.4,93,29.98,3.0,WNW,3.5,-,N/A,,Overcast,300,2013-07-13 08:18:00
12:44 AM,48.2,46.4,93,29.98,7.0,Calm,Calm,-,N/A,,Overcast,0,2013-07-13 08:44:00
12:56 AM,48.9,46.9,93,29.99,9.0,Calm,Calm,-,N/A,,Overcast,0,2013-07-13 08:56:00
1:10 AM,48.2,46.4,93,29.98,10.0,Calm,Calm,-,N/A,,Overcast,0,2013-07-13 09:10:00
1:56 AM,48.9,46.9,93,30.00,10.0,Calm,Calm,-,N/A,,Overcast,0,2013-07-13 09:56:00
2:41 AM,48.2,46.4,93,29.98,9.0,Calm,Calm,-,N/A,,Overcast,0,2013-07-13 10:41:00
2:56 AM,48.9,46.9,93,29.99,6.0,Calm,Calm,-,N/A,,Overcast,0,2013-07-13 10:56:00
3:56 AM,50.0,48.0,93,29.99,6.0,NW,3.5,-,N/A,,Overcast,310,2013-07-13 11:56:00
4:56 AM,50.0,48.0,93,29.99,6.0,ENE,4.6,-,N/A,,Overcast,70,2013-07-13 12:56:00
5:03 AM,48.2,48.2,100,29.97,4.0,East,4.6,-,N/A,,Overcast,100,2013-07-13 13:03:00
5:22 AM,48.2,48.2,100,29.97,6.0,Calm,Calm,-,N/A,,Overcast,0,2013-07-13 13:22:00
5:56 AM,48.9,46.9,93,29.99,5.0,East,3.5,-,N/A,,Overcast,90,2013-07-13 13:56:00
6:01 AM,48.2,46.4,93,29.97,3.0,East,4.6,-,N/A,,Overcast,90,2013-07-13 14:01:00
6:32 AM,48.2,46.4,93,29.97,3.0,East,8.1,-,N/A,,Overcast,90,2013-07-13 14:32:00
6:56 AM,48.0,46.9,96,29.99,4.0,East,3.5,-,N/A,,Overcast,80,2013-07-13 14:56:00
7:32 AM,48.2,46.4,93,29.97,3.0,ESE,3.5,-,N/A,,Overcast,120,2013-07-13 15:32:00
7:47 AM,48.2,46.4,93,29.97,3.0,Calm,Calm,-,N/A,,Overcast,0,2013-07-13 15:47:00
7:56 AM,48.9,46.9,93,29.98,3.0,East,4.6,-,N/A,,Overcast,100,2013-07-13 15:56:00
8:08 AM,48.2,46.4,93,29.96,1.5,ESE,3.5,-,N/A,,Overcast,110,2013-07-13 16:08:00
8:09 AM,48.2,46.4,93,29.96,0.8,ESE,3.5,-,N/A,,Mist,110,2013-07-13 16:09:00
8:30 AM,48.2,48.2,100,29.97,0.5,Calm,Calm,-,N/A,Fog,Fog,0,2013-07-13 16:30:00
8:56 AM,48.9,48.0,97,29.99,0.5,Calm,Calm,-,N/A,Fog,Fog,0,2013-07-13 16:56:00
8:57 AM,48.2,48.2,100,29.97,0.2,Calm,Calm,-,N/A,Fog,Fog,0,2013-07-13 16:57:00
9:06 AM,50.0,48.2,94,29.97,1.0,Calm,Calm,-,N/A,,Overcast,0,2013-07-13 17:06:00
9:09 AM,50.0,48.2,94,29.97,1.5,Calm,Calm,-,N/A,,Overcast,0,2013-07-13 17:09:00
9:10 AM,50.0,48.2,94,29.97,1.5,Calm,Calm,-,N/A,,Overcast,0,2013-07-13 17:10:00
9:28 AM,50.0,48.2,94,29.97,3.0,Calm,Calm,-,N/A,,Mostly Cloudy,0,2013-07-13 17:28:00
9:56 AM,50.0,48.9,96,29.99,4.0,East,3.5,-,N/A,,Mostly Cloudy,100,2013-07-13 17:56:00
10:08 AM,51.8,48.2,88,29.97,4.0,Calm,Calm,-,N/A,,Overcast,0,2013-07-13 18:08:00
10:13 AM,51.8,48.2,88,29.97,7.0,Calm,Calm,-,N/A,,Overcast,0,2013-07-13 18:13:00
10:56 AM,52.0,50.0,93,29.99,10.0,Calm,Calm,-,N/A,,Overcast,0,2013-07-13 18:56:00
11:23 AM,53.6,50.0,88,29.96,10.0,Calm,Calm,-,N/A,,Scattered Clouds,0,2013-07-13 19:23:00
11:40 AM,53.6,48.2,82,29.96,10.0,East,4.6,-,N/A,,Mostly Cloudy,100,2013-07-13 19:40:00
11:56 AM,54.0,50.0,86,29.97,10.0,East,3.5,-,N/A,,Mostly Cloudy,90,2013-07-13 19:56:00
12:15 PM,55.4,50.0,82,29.95,9.0,East,5.8,-,N/A,,Scattered Clouds,100,2013-07-13 20:15:00
12:56 PM,57.9,51.1,78,29.97,10.0,Calm,Calm,-,N/A,,Scattered Clouds,0,2013-07-13 20:56:00
1:56 PM,63.0,52.0,67,29.96,10.0,East,4.6,-,N/A,,Scattered Clouds,100,2013-07-13 21:56:00
2:56 PM,64.0,52.0,65,29.96,10.0,SSE,13.8,-,N/A,,Scattered Clouds,150,2013-07-13 22:56:00
3:56 PM,63.0,52.0,67,29.95,10.0,SE,15.0,19.6,N/A,,Scattered Clouds,140,2013-07-13 23:56:00
3:58 PM,64.4,51.8,64,29.94,10.0,SSE,13.8,-,N/A,,Scattered Clouds,150,2013-07-13 23:58:00
4:56 PM,64.0,52.0,65,29.95,10.0,SSE,12.7,-,N/A,,Clear,150,2013-07-14 00:56:00
5:56 PM,64.0,51.1,63,29.95,10.0,SSE,12.7,-,N/A,,Partly Cloudy,150,2013-07-14 01:56:00
6:56 PM,63.0,51.1,65,29.95,10.0,South,8.1,-,N/A,,Clear,180,2013-07-14 02:56:00
7:56 PM,63.0,50.0,63,29.95,10.0,SSE,9.2,-,N/A,,Clear,160,2013-07-14 03:56:00
8:56 PM,57.9,48.9,72,29.96,10.0,East,6.9,-,N/A,,Clear,80,2013-07-14 04:56:00
9:56 PM,55.0,48.9,80,29.96,10.0,Calm,Calm,-,N/A,,Clear,0,2013-07-14 05:56:00
10:56 PM,57.0,46.9,69,29.97,10.0,SSE,9.2,-,N/A,,Clear,150,2013-07-14 06:56:00
11:56 PM,54.0,46.9,77,29.98,10.0,SSE,19.6,25.3,N/A,,Clear,150,2013-07-14 07:56:00